createdAt,value
2019-04-30T00:03:30.766Z,8.20
2019-04-30T00:07:35.733Z,13.60
2019-04-30T00:11:39.435Z,8.90
2019-04-30T00:15:42.890Z,7.53
2019-04-30T00:19:50.496Z,8.75
2019-04-30T00:23:51.774Z,7.03
2019-04-30T00:27:55.944Z,5.97
2019-04-30T00:32:04.227Z,9.05
2019-04-30T00:36:05.367Z,5.83
2019-04-30T00:40:09.179Z,5.95
2019-04-30T00:44:15.035Z,5.92
2019-04-30T00:48:26.827Z,5.95
2019-04-30T00:52:25.310Z,4.15
2019-04-30T00:56:29.095Z,6.35
2019-04-30T01:00:35.258Z,9.38
2019-04-30T01:04:41.409Z,7.05
2019-04-30T01:08:46.126Z,5.15
2019-04-30T01:12:50.375Z,8.97
2019-04-30T01:16:54.474Z,4.53
2019-04-30T01:20:58.662Z,7.92
2019-04-30T01:25:09.059Z,4.33
2019-04-30T01:29:07.967Z,5.83
2019-04-30T01:33:11.714Z,4.80
2019-04-30T01:37:15.226Z,5.40
2019-04-30T01:41:20.282Z,6.58
2019-04-30T01:45:30.106Z,6.90
2019-04-30T01:49:41.578Z,4.90
2019-04-30T01:53:34.455Z,9.63
2019-04-30T01:57:42.455Z,5.42
2019-04-30T02:01:48.712Z,10.50
2019-04-30T02:05:52.258Z,6.28
2019-04-30T02:09:55.722Z,6.72
2019-04-30T02:13:59.242Z,13.48
2019-04-30T02:18:02.741Z,6.58
2019-04-30T02:22:06.174Z,6.40
2019-04-30T02:26:09.619Z,7.08
2019-04-30T02:30:14.638Z,7.67
2019-04-30T02:34:22.076Z,5.90
2019-04-30T02:38:32.323Z,6.62
2019-04-30T02:42:39.703Z,7.75
2019-04-30T02:46:44.121Z,8.50
2019-04-30T02:54:55.700Z,5.87
2019-04-30T02:59:03.210Z,7.05
2019-04-30T03:03:04.355Z,7.75
2019-04-30T03:07:09.799Z,6.70
2019-04-30T03:11:13.407Z,6.65
2019-04-30T03:15:19.498Z,5.47
2019-04-30T03:19:29.333Z,6.78
2019-04-30T03:23:32.191Z,6.12
2019-04-30T03:27:35.655Z,6.00
2019-04-30T03:31:43.846Z,9.90
2019-04-30T03:35:47.632Z,4.10
2019-04-30T03:39:49.799Z,4.80
2019-04-30T03:43:53.240Z,4.90
2019-04-30T03:47:59.592Z,3.12
2019-04-30T03:52:02.123Z,6.07
2019-04-30T03:56:05.566Z,4.92
2019-04-30T04:00:11.091Z,7.57
2019-04-30T04:04:22.093Z,4.40
2019-04-30T04:08:38.955Z,5.67
2019-04-30T04:16:44.578Z,5.47
2019-04-30T04:20:51.955Z,4.55
2019-04-30T04:24:53.535Z,5.28
2019-04-30T04:28:59.195Z,4.95
2019-04-30T04:33:02.145Z,3.15
2019-04-30T04:37:05.585Z,4.17
2019-04-30T04:41:10.391Z,4.30
2019-04-30T04:45:14.424Z,7.17
2019-04-30T04:49:19.973Z,6.95
2019-04-30T04:53:23.110Z,8.05
2019-04-30T04:57:26.901Z,8.20
2019-04-30T05:01:30.691Z,11.25
2019-04-30T05:05:34.609Z,15.15
2019-04-30T05:09:39.671Z,14.28
2019-04-30T05:13:43.289Z,16.85
2019-04-30T05:17:47.077Z,11.95
2019-04-30T05:21:51.697Z,10.80
2019-04-30T05:25:55.261Z,15.13
2019-04-30T05:29:59.568Z,13.38
2019-04-30T05:34:06.178Z,12.05
2019-04-30T05:42:12.926Z,10.08
2019-04-30T05:46:16.360Z,12.37
2019-04-30T05:50:20.387Z,14.58
2019-04-30T05:54:24.347Z,17.00
2019-04-30T05:58:29.795Z,15.53
2019-04-30T06:02:34.075Z,14.17
2019-04-30T06:06:38.899Z,14.30
2019-04-30T06:10:44.183Z,11.40
2019-04-30T06:14:59.003Z,11.43
2019-04-30T06:19:02.470Z,16.50
2019-04-30T06:23:05.932Z,13.05
2019-04-30T06:27:10.873Z,14.95
2019-04-30T06:31:14.473Z,17.23
2019-04-30T06:35:19.360Z,18.98
2019-04-30T06:39:23.263Z,18.77
2019-04-30T06:43:28.590Z,23.75
2019-04-30T06:47:33.367Z,18.63
2019-04-30T06:51:38.942Z,21.30
2019-04-30T06:55:42.508Z,21.55
2019-04-30T06:59:45.961Z,23.20
2019-04-30T07:08:46.892Z,21.47
2019-04-30T07:12:58.985Z,24.45
2019-04-30T07:17:02.530Z,21.83
2019-04-30T07:21:06.049Z,28.02
2019-04-30T07:25:09.701Z,27.52
2019-04-30T07:29:13.143Z,25.60
2019-04-30T07:33:16.862Z,24.37
2019-04-30T07:37:24.359Z,23.20
2019-04-30T07:41:25.891Z,25.82
2019-04-30T07:45:31.962Z,21.55
2019-04-30T07:49:46.766Z,25.65
2019-04-30T07:53:40.658Z,22.17
2019-04-30T07:57:44.467Z,21.37
2019-04-30T08:02:03.249Z,19.48
2019-04-30T08:05:54.745Z,22.60
2019-04-30T08:09:58.991Z,22.50
2019-04-30T08:14:02.900Z,21.85
2019-04-30T08:18:08.602Z,16.97
2019-04-30T08:22:11.990Z,16.77
2019-04-30T08:26:18.773Z,17.35
2019-04-30T08:30:26.701Z,14.73
2019-04-30T08:34:29.218Z,20.47
2019-04-30T08:38:32.903Z,21.13
2019-04-30T08:42:38.392Z,20.02
2019-04-30T08:46:41.561Z,24.53
2019-04-30T08:50:46.636Z,19.77
2019-04-30T08:54:50.126Z,20.57
2019-04-30T08:58:54.931Z,21.95
2019-04-30T09:02:59.458Z,22.48
2019-04-30T09:07:03.112Z,22.93
2019-04-30T09:11:19.225Z,21.20
2019-04-30T09:15:13.510Z,23.63
2019-04-30T09:19:21.065Z,20.77
2019-04-30T09:27:25.515Z,24.45
2019-04-30T09:31:29.777Z,23.98
2019-04-30T09:35:33.353Z,25.92
2019-04-30T09:39:36.810Z,22.77
2019-04-30T09:43:40.577Z,26.68
2019-04-30T09:47:44.311Z,24.30
2019-04-30T09:51:49.463Z,25.95
2019-04-30T09:55:53.228Z,27.23
2019-04-30T09:59:56.959Z,24.45
2019-04-30T10:04:00.853Z,26.33
2019-04-30T10:08:04.886Z,29.37
2019-04-30T10:12:09.979Z,26.40
2019-04-30T10:16:31.636Z,27.35
2019-04-30T10:20:45.809Z,26.93
2019-04-30T10:24:49.589Z,24.57
2019-04-30T10:28:53.246Z,28.92
2019-04-30T10:32:56.774Z,25.85
2019-04-30T10:37:02.937Z,28.98
2019-04-30T10:41:06.019Z,26.17
2019-04-30T10:45:09.963Z,28.00
2019-04-30T10:49:14.478Z,28.60
2019-04-30T10:53:17.922Z,29.15
2019-04-30T10:57:21.394Z,28.95
2019-04-30T11:01:24.849Z,28.65
2019-04-30T11:05:29.239Z,27.87
2019-04-30T11:09:34.538Z,26.33
2019-04-30T11:13:38.063Z,31.17
2019-04-30T11:17:41.640Z,32.50
2019-04-30T11:21:45.669Z,30.23
2019-04-30T11:25:51.066Z,35.08
2019-04-30T11:30:00.639Z,32.85
2019-04-30T11:34:01.221Z,25.43
2019-04-30T11:38:05.187Z,28.70
2019-04-30T11:42:08.734Z,31.02
2019-04-30T11:46:28.701Z,28.17
2019-04-30T11:50:32.312Z,25.23
2019-04-30T11:54:48.496Z,28.92
2019-04-30T11:58:41.323Z,26.80
2019-04-30T12:02:44.918Z,24.55
2019-04-30T12:06:48.386Z,23.52
2019-04-30T12:10:59.476Z,25.95
2019-04-30T12:15:03.399Z,27.37
2019-04-30T12:19:08.905Z,20.65
2019-04-30T12:23:12.062Z,25.60
2019-04-30T12:27:15.868Z,18.77
2019-04-30T12:31:19.332Z,22.48
2019-04-30T12:35:22.778Z,23.38
2019-04-30T12:39:26.229Z,24.85
2019-04-30T12:43:29.678Z,25.35
2019-04-30T12:47:34.783Z,26.90
2019-04-30T12:51:45.959Z,28.05
2019-04-30T12:55:51.730Z,26.55
2019-04-30T12:59:55.003Z,27.57
2019-04-30T13:04:01.230Z,23.47
2019-04-30T13:08:04.796Z,20.25
2019-04-30T13:12:10.396Z,27.75
2019-04-30T13:16:14.078Z,24.75
2019-04-30T13:20:21.724Z,22.84
2019-04-30T13:24:22.892Z,18.27
2019-04-30T13:28:28.366Z,21.93
2019-04-30T13:32:33.546Z,22.40
2019-04-30T13:36:37.010Z,21.87
2019-04-30T13:40:43.596Z,22.13
2019-04-30T13:44:49.177Z,22.98
2019-04-30T13:48:52.286Z,19.53
2019-04-30T13:52:55.726Z,13.98
2019-04-30T13:56:59.475Z,13.25
2019-04-30T14:01:02.924Z,12.55
2019-04-30T14:05:08.150Z,13.25
2019-04-30T14:09:16.175Z,13.67
2019-04-30T14:13:20.557Z,10.93
2019-04-30T14:17:24.318Z,11.55
2019-04-30T14:21:33.203Z,10.40
2019-04-30T14:25:33.374Z,20.15
2019-04-30T14:29:36.908Z,23.47
2019-04-30T14:33:40.635Z,20.57
2019-04-30T14:37:44.097Z,25.97
2019-04-30T14:41:51.167Z,23.80
2019-04-30T14:46:11.501Z,26.20
2019-04-30T14:50:18.612Z,24.40
2019-04-30T14:54:36.047Z,23.35
2019-04-30T14:58:47.162Z,21.10
2019-04-30T15:02:55.344Z,21.60
2019-04-30T15:06:58.858Z,22.32
2019-04-30T15:11:02.408Z,22.98
2019-04-30T15:15:09.042Z,22.30
2019-04-30T15:19:12.520Z,23.55
2019-04-30T15:23:30.475Z,26.70
2019-04-30T15:27:34.286Z,24.02
2019-04-30T15:31:39.438Z,20.48
2019-04-30T15:35:42.918Z,23.47
2019-04-30T15:39:46.607Z,22.00
2019-04-30T15:43:50.129Z,21.60
2019-04-30T15:47:53.872Z,22.55
2019-04-30T15:51:57.676Z,23.22
2019-04-30T15:56:01.134Z,23.55
2019-04-30T16:00:07.505Z,22.67
2019-04-30T16:04:12.641Z,24.85
2019-04-30T16:08:23.746Z,28.00
2019-04-30T16:12:48.603Z,24.00
2019-04-30T16:16:53.401Z,25.97
2019-04-30T16:20:56.849Z,24.70
2019-04-30T16:25:00.639Z,30.48
2019-04-30T16:29:04.794Z,29.37
2019-04-30T16:33:09.490Z,25.53
2019-04-30T16:37:13.354Z,24.12
2019-04-30T16:41:30.687Z,31.05
2019-04-30T16:45:22.055Z,27.33
2019-04-30T16:49:25.502Z,28.27
2019-04-30T16:53:28.958Z,28.70
2019-04-30T16:57:32.737Z,33.00
2019-04-30T17:01:36.703Z,29.67
2019-04-30T17:05:44.683Z,32.42
2019-04-30T17:10:08.854Z,29.20
2019-04-30T17:14:31.381Z,28.95
2019-04-30T17:18:35.222Z,33.53
2019-04-30T17:22:39.478Z,30.52
2019-04-30T17:26:42.977Z,28.38
2019-04-30T17:30:46.567Z,27.30
2019-04-30T17:34:50.277Z,28.05
2019-04-30T17:38:53.737Z,29.23
2019-04-30T17:42:57.193Z,30.15
2019-04-30T17:47:00.660Z,26.27
2019-04-30T17:51:04.427Z,24.32
2019-04-30T17:55:09.728Z,29.98
2019-04-30T18:03:16.584Z,31.20
2019-04-30T18:07:20.109Z,24.12
2019-04-30T18:11:23.566Z,24.35
2019-04-30T18:15:28.652Z,29.05
2019-04-30T18:19:39.502Z,25.53
2019-04-30T18:23:50.334Z,27.22
2019-04-30T18:27:55.761Z,28.60
2019-04-30T18:31:59.889Z,26.97
2019-04-30T18:36:03.611Z,29.82
2019-04-30T18:40:09.627Z,28.02
2019-04-30T18:44:13.265Z,33.90
2019-04-30T18:48:16.729Z,26.68
2019-04-30T18:52:20.178Z,27.93
2019-04-30T18:56:23.654Z,27.10
2019-04-30T19:00:29.408Z,32.25
2019-04-30T19:04:32.972Z,29.82
2019-04-30T19:08:39.484Z,31.35
2019-04-30T19:12:45.102Z,33.75
2019-04-30T19:17:06.506Z,29.67
2019-04-30T19:21:10.937Z,30.62
2019-04-30T19:25:14.399Z,35.40
2019-04-30T19:29:18.188Z,30.08
2019-04-30T19:33:22.034Z,31.45
2019-04-30T19:37:25.821Z,31.27
2019-04-30T19:41:29.279Z,29.18
2019-04-30T19:45:32.790Z,31.62
2019-04-30T19:49:36.537Z,32.75
2019-04-30T19:53:39.998Z,27.60
2019-04-30T19:57:43.474Z,29.35
2019-04-30T20:01:48.742Z,28.92
2019-04-30T20:05:52.114Z,29.43
2019-04-30T20:10:01.089Z,29.02
2019-04-30T20:14:01.015Z,32.58
2019-04-30T20:18:12.079Z,28.30
2019-04-30T20:22:15.702Z,29.15
2019-04-30T20:26:19.512Z,33.10
2019-04-30T20:30:22.978Z,25.95
2019-04-30T20:34:26.438Z,30.72
2019-04-30T20:38:34.632Z,30.37
2019-04-30T20:42:39.992Z,34.38
2019-04-30T20:46:43.344Z,32.87
2019-04-30T20:50:47.645Z,36.85
2019-04-30T20:54:51.113Z,32.00
2019-04-30T20:58:58.616Z,32.65
2019-04-30T21:03:00.109Z,34.58
2019-04-30T21:07:03.549Z,35.70
2019-04-30T21:11:07.017Z,37.38
2019-04-30T21:15:10.545Z,34.58
2019-04-30T21:19:14.013Z,38.88
2019-04-30T21:23:19.456Z,34.85
2019-04-30T21:27:23.177Z,38.95
2019-04-30T21:31:31.263Z,37.80
2019-04-30T21:35:36.436Z,35.10
2019-04-30T21:39:39.969Z,42.80
2019-04-30T21:43:43.431Z,38.25
2019-04-30T21:47:56.105Z,43.65
2019-04-30T21:51:52.121Z,37.77
2019-04-30T21:55:55.577Z,36.17
2019-04-30T21:59:59.034Z,41.73
2019-04-30T22:04:02.489Z,43.70
2019-04-30T22:08:10.641Z,34.65
2019-04-30T22:12:14.094Z,37.67
2019-04-30T22:16:20.097Z,37.38
2019-04-30T22:20:23.415Z,38.83
2019-04-30T22:24:28.321Z,37.78
2019-04-30T22:28:32.056Z,39.75
2019-04-30T22:32:35.795Z,40.12
2019-04-30T22:36:40.913Z,39.90
2019-04-30T22:40:44.447Z,43.35
2019-04-30T22:44:49.382Z,39.95
2019-04-30T22:48:53.186Z,43.45
2019-04-30T22:52:56.707Z,44.15
2019-04-30T22:57:00.165Z,47.40
2019-04-30T23:01:11.309Z,42.25
2019-04-30T23:05:16.183Z,51.55
2019-04-30T23:09:19.697Z,44.75
2019-04-30T23:13:23.150Z,44.48
2019-04-30T23:17:26.601Z,46.63
2019-04-30T23:21:30.389Z,48.15
2019-04-30T23:25:33.850Z,50.50
2019-04-30T23:29:37.286Z,49.85
2019-04-30T23:33:40.815Z,50.55
2019-04-30T23:37:44.278Z,48.25
2019-04-30T23:41:47.740Z,49.08
2019-04-30T23:45:51.177Z,51.60
2019-04-30T23:49:54.946Z,51.33
2019-04-30T23:53:58.385Z,48.45
2019-04-30T23:58:02.122Z,49.15
